Thomaston, ME (04861)

10:54 PM EST on February 09, 2016 (GMT -0500)
Thomaston | | Change Station
CLOSE
Current Station
Personal Weather Station
Location: Thomaston, ME
Elevation: 131 ft
Nearby Weather Stations

Elev 131 ft 44.08 °N, 69.19 °W | Updated 19 seconds ago

Partly Cloudy
Partly Cloudy
21.7 °F
Feels Like 22 °F
N
1.3
Wind Variable Wind from West
Gusts 2.5 mph

Today
High -- | Low -- °F
--% Chance of Precip.
Yesterday
High -- | Low -- °F
Precip. -- in
Pressure 29.59 in
Visibility 10.0 miles
Clouds Overcast 2200 ft
Windchill 22 °F
Dew Point 15 °F
Humidity 74%
Rainfall 0.00 in
Snow Depth Not available.
6:45 AM 4:57 PM
Waxing Crescent, 3% visible
METAR KRKD 100156Z AUTO 30005KT 10SM OVC022 M06/M09 A2959 RMK AO2 SLPNO T10611094 FZRANO
Pressure 29.59 in
Visibility 10.0 miles
Clouds Overcast 2200 ft
Windchill 22 °F
Dew Point 15 °F
Humidity 74%
Rainfall 0.00 in
Snow Depth Not available.
6:45 AM 4:57 PM
Waxing Crescent, 3% visible
METAR KRKD 100156Z AUTO 30005KT 10SM OVC022 M06/M09 A2959 RMK AO2 SLPNO T10611094 FZRANO

10-Day Weather Forecast

Almanac

Astronomy

Feb. 09, 2016 Rise Set
Actual Time
Civil Twilight
Nautical Twilight
Astronomical Twilight
Moon
Length of Visible Light
Length of Day
Tomorrow will be .
, % of the Moon is Illuminated

Today's Extremes

State Highs State Lows

Community

WunderPhotos

Upload Photos

1,891,792 photos uploaded!

WunderBlog® & News

Nearby

Air Quality

  Air Quality AQ Index Pollutant
Not available.

Snow Depth

Station Depth Elevation

Earthquake Activity

City Distance Mag. Time & Date
Minimum magnitude displayed is 2.5.

Coastal Water Temperatures

Place Temperature

Stations

Nearby Weather Stations

Station Location Temp. Windchill Dew Point Humidity Wind Precip. Elev Updated Type
                   

Watches & Warnings

There are currently no watches in effect.